Terminal Aerodrome Forecast
Issued by NWS

Current Version | Previous Version | Graphics & Text | Print | Product List | Glossary On
Versions: 1 2 3 4 5 6 7 8 9 10 11 12 13 14 15 16 17 18 19 20
302
FTUS41 KILN 171734 AAA
TAFLUK
TAF AMD
KLUK 171734Z 1718/1818 22010KT P6SM SKC
     FM180000 23004KT P6SM FEW250
     FM181300 22007KT P6SM BKN180=

USA.gov is the U.S. government's official web portal to all federal, state and local government web resources and services.